CYYY

Mont Joli Airport

Mont-Joli, Quebec, Canada
TAF CYYY 170738Z 1708/1720 19005KT P6SM SCT030 BKN160 FM171200 16010KT P6SM SCT080 BKN120 TEMPO 1712/1715 P6SM -SN OVC080 FM171500 17008KT P6SM -SN OVC080 TEMPO 1715/1718 2SM -SN OVC050 FM171800 17010KT 6SM -SN FEW012 OVC025 TEMPO 1718/1720 2SM -SN OVC012 PROB30 1718/1720 1SM -SN VV010 RMK NXT FCST BY 171400Z
Issued Valid From Valid To
Dec-17 @ 07:38 UTC
(5 hours ago)
Dec-17 @ 08:00 UTC
(4 hours ago)
Dec-17 @ 20:00 UTC
(in 8 hours)
Expired Click to View Dec-17 @ 08:00 to Dec-17 @ 12:00
TAF CYYY 170738Z 1708/1720 19005KT P6SM SCT030 BKN160
Wind Visibility Clouds
190° at 5 knots Greater than 6 miles
  • Scattered at 3,000' AGL
  • Broken at 16,000' AGL
Temporary Dec-17 @ 12:00 to Dec-17 @ 15:00
TEMPO 1712/1715 P6SM -SN OVC080
Visibility Clouds Conditions
Greater than 6 miles
  • Overcast at 8,000' AGL
  • Light Snow
From Dec-17 @ 12:00 to Dec-17 @ 15:00
FM171200 16010KT P6SM SCT080 BKN120
Wind Visibility Clouds
160° at 10 knots Greater than 6 miles
  • Scattered at 8,000' AGL
  • Broken at 12,000' AGL
Temporary Dec-17 @ 15:00 to Dec-17 @ 18:00
TEMPO 1715/1718 2SM -SN OVC050
Visibility Clouds Conditions
2 miles
  • Overcast at 5,000' AGL
  • Light Snow
From Dec-17 @ 15:00 to Dec-17 @ 18:00
FM171500 17008KT P6SM -SN OVC080
Wind Visibility Clouds Conditions
170° at 8 knots Greater than 6 miles
  • Overcast at 8,000' AGL
  • Light Snow
Probable  (Probability 30%) Dec-17 @ 18:00 to Dec-17 @ 20:00
PROB30 1718/1720 1SM -SN VV010 RMK NXT FCST BY 171400Z
Visibility Clouds Conditions
1 miles
  • Vertical visibility at 1,000' AGL
  • Light Snow
Temporary Dec-17 @ 18:00 to Dec-17 @ 20:00
TEMPO 1718/1720 2SM -SN OVC012
Visibility Clouds Conditions
2 miles
  • Overcast at 1,200' AGL
  • Light Snow
From Dec-17 @ 18:00 to Dec-17 @ 20:00
FM171800 17010KT 6SM -SN FEW012 OVC025
Wind Visibility Clouds Conditions
170° at 10 knots 6 miles
  • Few at 1,200' AGL
  • Overcast at 2,500' AGL
  • Light Snow
TAF CYYY 170738Z 1708/1720 19005KT P6SM SCT030 BKN160 FM171200 16010KT P6SM SCT080 BKN120 TEMPO 1712/1715 P6SM -SN OVC080 FM171500 17008KT P6SM -SN OVC080 TEMPO 1715/1718 2SM -SN OVC050 FM171800 17010KT 6SM -SN FEW012 OVC025 TEMPO 1718/1720 2SM -SN OVC012 PROB30 1718/1720 1SM -SN VV010 RMK NXT FCST BY 171400Z
Issued Dec-17 @ 07:38 UTC
(5 hours ago)
Valid From Dec-17 @ 08:00 UTC
(4 hours ago)
Valid To Dec-17 @ 20:00 UTC
(in 8 hours)
Dec-17 @ 08:00 - Dec-17 @ 12:00
Wind Visibility
190° at 5 knots Greater than 6 miles
Clouds
  • Scattered at 3,000' AGL
  • Broken at 16,000' AGL
Temporary Dec-17 @ 12:00 - Dec-17 @ 15:00
Clouds
  • Overcast at 8,000' AGL
Conditions
  • Light Snow
From Dec-17 @ 12:00 - Dec-17 @ 15:00
Wind Visibility
160° at 10 knots Greater than 6 miles
Clouds
  • Scattered at 8,000' AGL
  • Broken at 12,000' AGL
Temporary Dec-17 @ 15:00 - Dec-17 @ 18:00
Clouds
  • Overcast at 5,000' AGL
Conditions
  • Light Snow
From Dec-17 @ 15:00 - Dec-17 @ 18:00
Wind Visibility
170° at 8 knots Greater than 6 miles
Clouds
  • Overcast at 8,000' AGL
Conditions
  • Light Snow
Probability 30% Probable Dec-17 @ 18:00 - Dec-17 @ 20:00
Clouds
  • Vertical visibility at 1,000' AGL
Conditions
  • Light Snow
Temporary Dec-17 @ 18:00 - Dec-17 @ 20:00
Clouds
  • Overcast at 1,200' AGL
Conditions
  • Light Snow
From Dec-17 @ 18:00 - Dec-17 @ 20:00
Wind Visibility
170° at 10 knots 6 miles
Clouds
  • Few at 1,200' AGL
  • Overcast at 2,500' AGL
Conditions
  • Light Snow